Terminal Aerodrome Forecast
Issued by NWS Wakefield, VA

Home | Current Version | Previous Version | Text Only | Print | Product List | Glossary On
Versions: 1 2 3 4 5 6 7 8 9 10 11 12 13
635
FTUS41 KAKQ 271732
TAFORF
TAF
KORF 271732Z 2718/2818 21010KT P6SM SCT040 BKN150
     FM272200 19010KT P6SM BKN040
     FM280000 19009KT P6SM VCTS BKN040CB
     FM280300 22011KT P6SM BKN060
     FM281000 23008KT P6SM OVC030
     FM281300 23008KT P6SM OVC035
     FM281600 23009KT P6SM -SHRA OVC040=

USA.gov is the U.S. government's official web portal to all federal, state and local government web resources and services.